sensor_id;sensor_type;location;lat;lon;timestamp;pressure;altitude;pressure_sealevel;temperature;humidity
64200;BME280;50516;52.272;5.136;2024-02-21T00:00:50;102102.00;;;9.68;100.00
64200;BME280;50516;52.272;5.136;2024-02-21T00:03:15;102090.78;;;9.70;100.00
64200;BME280;50516;52.272;5.136;2024-02-21T00:05:40;102088.28;;;9.68;100.00
64200;BME280;50516;52.272;5.136;2024-02-21T00:08:06;102086.75;;;9.73;100.00
64200;BME280;50516;52.272;5.136;2024-02-21T00:10:31;102092.59;;;9.76;100.00
64200;BME280;50516;52.272;5.136;2024-02-21T00:13:00;102089.63;;;9.78;100.00
64200;BME280;50516;52.272;5.136;2024-02-21T00:15:25;102089.16;;;9.81;100.00
64200;BME280;50516;52.272;5.136;2024-02-21T00:17:51;102097.25;;;9.76;100.00
64200;BME280;50516;52.272;5.136;2024-02-21T00:20:16;102095.34;;;9.76;100.00
64200;BME280;50516;52.272;5.136;2024-02-21T00:22:43;102087.34;;;9.75;100.00
64200;BME280;50516;52.272;5.136;2024-02-21T00:25:08;102088.09;;;9.82;100.00
64200;BME280;50516;52.272;5.136;2024-02-21T00:27:33;102085.94;;;9.84;100.00
64200;BME280;50516;52.272;5.136;2024-02-21T00:29:59;102104.31;;;9.83;100.00
64200;BME280;50516;52.272;5.136;2024-02-21T00:32:24;102103.72;;;10.05;100.00
64200;BME280;50516;52.272;5.136;2024-02-21T00:34:49;102083.06;;;10.02;100.00
64200;BME280;50516;52.272;5.136;2024-02-21T00:37:14;102075.31;;;9.87;100.00
64200;BME280;50516;52.272;5.136;2024-02-21T00:39:40;102067.56;;;9.73;100.00
64200;BME280;50516;52.272;5.136;2024-02-21T00:42:05;102068.25;;;9.68;100.00
64200;BME280;50516;52.272;5.136;2024-02-21T00:44:32;102069.66;;;9.59;100.00
64200;BME280;50516;52.272;5.136;2024-02-21T00:46:57;102077.91;;;9.59;100.00
64200;BME280;50516;52.272;5.136;2024-02-21T00:49:23;102068.50;;;9.55;100.00
64200;BME280;50516;52.272;5.136;2024-02-21T00:51:48;102059.19;;;9.56;100.00
64200;BME280;50516;52.272;5.136;2024-02-21T00:54:13;102073.97;;;9.55;100.00
64200;BME280;50516;52.272;5.136;2024-02-21T00:56:39;102074.22;;;9.53;100.00
64200;BME280;50516;52.272;5.136;2024-02-21T00:59:04;102076.84;;;9.60;100.00
64200;BME280;50516;52.272;5.136;2024-02-21T01:01:29;102069.91;;;9.57;100.00
64200;BME280;50516;52.272;5.136;2024-02-21T01:03:55;102068.84;;;9.58;100.00
64200;BME280;50516;52.272;5.136;2024-02-21T01:06:20;102069.22;;;9.62;100.00
64200;BME280;50516;52.272;5.136;2024-02-21T01:08:49;102069.09;;;9.68;100.00
64200;BME280;50516;52.272;5.136;2024-02-21T01:11:15;102056.31;;;9.62;100.00
64200;BME280;50516;52.272;5.136;2024-02-21T01:13:40;102058.75;;;9.71;100.00
64200;BME280;50516;52.272;5.136;2024-02-21T01:16:06;102061.59;;;9.76;100.00
64200;BME280;50516;52.272;5.136;2024-02-21T01:18:37;102051.94;;;9.73;100.00
64200;BME280;50516;52.272;5.136;2024-02-21T01:21:03;102052.75;;;9.74;100.00
64200;BME280;50516;52.272;5.136;2024-02-21T01:23:32;102045.97;;;9.88;100.00
64200;BME280;50516;52.272;5.136;2024-02-21T01:25:57;102048.00;;;9.93;100.00
64200;BME280;50516;52.272;5.136;2024-02-21T01:28:22;102043.22;;;9.88;100.00
64200;BME280;50516;52.272;5.136;2024-02-21T01:30:48;102044.44;;;9.80;100.00
64200;BME280;50516;52.272;5.136;2024-02-21T01:33:13;102029.03;;;9.79;100.00
64200;BME280;50516;52.272;5.136;2024-02-21T01:35:38;102025.72;;;9.89;100.00
64200;BME280;50516;52.272;5.136;2024-02-21T01:38:04;102023.19;;;9.87;100.00
64200;BME280;50516;52.272;5.136;2024-02-21T01:40:29;102012.59;;;10.03;100.00
64200;BME280;50516;52.272;5.136;2024-02-21T01:42:55;102004.34;;;10.03;100.00
64200;BME280;50516;52.272;5.136;2024-02-21T01:45:21;102009.00;;;9.91;100.00
64200;BME280;50516;52.272;5.136;2024-02-21T01:47:46;101995.63;;;9.94;100.00
64200;BME280;50516;52.272;5.136;2024-02-21T01:50:12;102012.00;;;9.89;100.00
64200;BME280;50516;52.272;5.136;2024-02-21T01:52:39;102003.88;;;9.82;100.00
64200;BME280;50516;52.272;5.136;2024-02-21T01:55:05;102003.38;;;9.97;100.00
64200;BME280;50516;52.272;5.136;2024-02-21T01:57:31;101995.28;;;10.02;100.00
64200;BME280;50516;52.272;5.136;2024-02-21T01:59:57;102001.38;;;10.04;100.00
64200;BME280;50516;52.272;5.136;2024-02-21T02:02:22;102006.63;;;9.94;100.00
64200;BME280;50516;52.272;5.136;2024-02-21T02:04:48;101996.84;;;9.98;100.00
64200;BME280;50516;52.272;5.136;2024-02-21T02:07:14;101997.69;;;9.87;100.00
64200;BME280;50516;52.272;5.136;2024-02-21T02:09:39;101992.66;;;9.84;100.00
64200;BME280;50516;52.272;5.136;2024-02-21T02:12:05;101986.34;;;9.95;100.00
64200;BME280;50516;52.272;5.136;2024-02-21T02:14:30;101986.09;;;9.97;100.00
64200;BME280;50516;52.272;5.136;2024-02-21T02:16:55;101983.50;;;9.90;100.00
64200;BME280;50516;52.272;5.136;2024-02-21T02:19:21;101977.28;;;9.83;100.00
64200;BME280;50516;52.272;5.136;2024-02-21T02:21:50;101985.13;;;9.91;100.00
64200;BME280;50516;52.272;5.136;2024-02-21T02:24:21;101990.63;;;9.91;100.00
64200;BME280;50516;52.272;5.136;2024-02-21T02:26:47;101986.09;;;9.97;100.00
64200;BME280;50516;52.272;5.136;2024-02-21T02:29:12;101979.31;;;9.87;100.00
64200;BME280;50516;52.272;5.136;2024-02-21T02:31:37;101973.94;;;9.81;100.00
64200;BME280;50516;52.272;5.136;2024-02-21T02:34:03;101970.38;;;9.80;100.00
64200;BME280;50516;52.272;5.136;2024-02-21T02:36:32;101957.34;;;9.87;100.00
64200;BME280;50516;52.272;5.136;2024-02-21T02:38:58;101966.03;;;9.96;100.00
64200;BME280;50516;52.272;5.136;2024-02-21T02:41:23;101966.03;;;9.96;100.00
64200;BME280;50516;52.272;5.136;2024-02-21T02:43:49;101964.63;;;9.94;100.00
64200;BME280;50516;52.272;5.136;2024-02-21T02:46:14;101965.69;;;10.04;100.00
64200;BME280;50516;52.272;5.136;2024-02-21T02:48:39;101957.09;;;10.13;100.00
64200;BME280;50516;52.272;5.136;2024-02-21T02:51:05;101955.41;;;10.12;100.00
64200;BME280;50516;52.272;5.136;2024-02-21T02:53:30;101961.28;;;10.03;100.00
64200;BME280;50516;52.272;5.136;2024-02-21T02:55:55;101948.75;;;9.96;100.00
64200;BME280;50516;52.272;5.136;2024-02-21T02:58:21;101947.53;;;10.15;100.00
64200;BME280;50516;52.272;5.136;2024-02-21T03:00:46;101949.34;;;10.10;100.00
64200;BME280;50516;52.272;5.136;2024-02-21T03:03:11;101951.00;;;10.11;100.00
64200;BME280;50516;52.272;5.136;2024-02-21T03:05:37;101954.94;;;10.15;100.00
64200;BME280;50516;52.272;5.136;2024-02-21T03:08:02;101941.00;;;10.04;100.00
64200;BME280;50516;52.272;5.136;2024-02-21T03:10:32;101925.81;;;10.14;100.00
64200;BME280;50516;52.272;5.136;2024-02-21T03:12:57;101932.78;;;10.04;100.00
64200;BME280;50516;52.272;5.136;2024-02-21T03:15:22;101929.41;;;10.14;100.00
64200;BME280;50516;52.272;5.136;2024-02-21T03:17:48;101920.69;;;10.05;100.00
64200;BME280;50516;52.272;5.136;2024-02-21T03:20:13;101902.22;;;10.01;100.00
64200;BME280;50516;52.272;5.136;2024-02-21T03:22:39;101894.47;;;10.10;100.00
64200;BME280;50516;52.272;5.136;2024-02-21T03:25:05;101899.47;;;10.13;100.00
64200;BME280;50516;52.272;5.136;2024-02-21T03:27:30;101892.28;;;10.12;100.00
64200;BME280;50516;52.272;5.136;2024-02-21T03:29:56;101891.66;;;10.21;100.00
64200;BME280;50516;52.272;5.136;2024-02-21T03:32:21;101885.84;;;10.18;100.00
64200;BME280;50516;52.272;5.136;2024-02-21T03:34:46;101877.75;;;9.99;100.00
64200;BME280;50516;52.272;5.136;2024-02-21T03:37:12;101880.13;;;10.08;100.00
64200;BME280;50516;52.272;5.136;2024-02-21T03:39:39;101875.25;;;10.10;100.00
64200;BME280;50516;52.272;5.136;2024-02-21T03:42:04;101873.44;;;10.15;100.00
64200;BME280;50516;52.272;5.136;2024-02-21T03:44:30;101872.03;;;10.13;100.00
64200;BME280;50516;52.272;5.136;2024-02-21T03:46:56;101877.47;;;10.24;100.00
64200;BME280;50516;52.272;5.136;2024-02-21T03:49:22;101884.88;;;10.24;100.00
64200;BME280;50516;52.272;5.136;2024-02-21T03:51:47;101875.69;;;10.18;100.00
64200;BME280;50516;52.272;5.136;2024-02-21T03:54:12;101874.81;;;10.30;100.00
64200;BME280;50516;52.272;5.136;2024-02-21T03:56:38;101862.28;;;10.34;100.00
64200;BME280;50516;52.272;5.136;2024-02-21T03:59:05;101867.44;;;10.18;100.00
64200;BME280;50516;52.272;5.136;2024-02-21T04:01:31;101865.03;;;10.22;100.00
64200;BME280;50516;52.272;5.136;2024-02-21T04:03:56;101865.16;;;10.27;100.00
64200;BME280;50516;52.272;5.136;2024-02-21T04:06:21;101866.63;;;10.18;100.00
64200;BME280;50516;52.272;5.136;2024-02-21T04:08:47;101866.72;;;10.23;100.00
64200;BME280;50516;52.272;5.136;2024-02-21T04:11:12;101852.19;;;10.11;100.00
64200;BME280;50516;52.272;5.136;2024-02-21T04:13:37;101841.22;;;10.11;100.00
64200;BME280;50516;52.272;5.136;2024-02-21T04:16:03;101844.56;;;10.13;100.00
64200;BME280;50516;52.272;5.136;2024-02-21T04:18:28;101845.31;;;9.96;100.00
64200;BME280;50516;52.272;5.136;2024-02-21T04:20:53;101860.72;;;9.97;100.00
64200;BME280;50516;52.272;5.136;2024-02-21T04:23:19;101855.13;;;9.92;100.00
64200;BME280;50516;52.272;5.136;2024-02-21T04:25:44;101847.34;;;10.01;100.00
64200;BME280;50516;52.272;5.136;2024-02-21T04:28:09;101854.16;;;9.98;100.00
64200;BME280;50516;52.272;5.136;2024-02-21T04:30:34;101858.56;;;9.99;100.00
64200;BME280;50516;52.272;5.136;2024-02-21T04:33:00;101839.97;;;10.01;100.00
64200;BME280;50516;52.272;5.136;2024-02-21T04:35:25;101837.28;;;9.78;100.00
64200;BME280;50516;52.272;5.136;2024-02-21T04:37:51;101847.88;;;9.86;100.00
64200;BME280;50516;52.272;5.136;2024-02-21T04:40:16;101833.91;;;9.87;100.00
64200;BME280;50516;52.272;5.136;2024-02-21T04:42:42;101824.53;;;9.83;100.00
64200;BME280;50516;52.272;5.136;2024-02-21T04:45:08;101815.53;;;9.88;100.00
64200;BME280;50516;52.272;5.136;2024-02-21T04:47:33;101833.78;;;9.94;100.00
64200;BME280;50516;52.272;5.136;2024-02-21T04:49:58;101825.00;;;9.80;100.00
64200;BME280;50516;52.272;5.136;2024-02-21T04:52:24;101827.47;;;9.94;100.00
64200;BME280;50516;52.272;5.136;2024-02-21T04:54:49;101820.75;;;10.01;100.00
64200;BME280;50516;52.272;5.136;2024-02-21T04:57:15;101816.19;;;10.07;100.00
64200;BME280;50516;52.272;5.136;2024-02-21T04:59:43;101820.28;;;10.04;100.00
64200;BME280;50516;52.272;5.136;2024-02-21T05:02:09;101823.09;;;10.10;100.00
64200;BME280;50516;52.272;5.136;2024-02-21T05:04:35;101820.13;;;10.11;100.00
64200;BME280;50516;52.272;5.136;2024-02-21T05:07:02;101823.09;;;10.10;100.00
64200;BME280;50516;52.272;5.136;2024-02-21T05:09:27;101815.94;;;10.09;100.00
64200;BME280;50516;52.272;5.136;2024-02-21T05:11:52;101802.38;;;10.02;100.00
64200;BME280;50516;52.272;5.136;2024-02-21T05:14:17;101804.06;;;10.03;100.00
64200;BME280;50516;52.272;5.136;2024-02-21T05:16:43;101797.97;;;10.01;100.00
64200;BME280;50516;52.272;5.136;2024-02-21T05:19:08;101798.19;;;9.99;100.00
64200;BME280;50516;52.272;5.136;2024-02-21T05:21:33;101795.13;;;9.96;100.00
64200;BME280;50516;52.272;5.136;2024-02-21T05:23:59;101787.44;;;9.81;100.00
64200;BME280;50516;52.272;5.136;2024-02-21T05:26:25;101779.59;;;9.73;100.00
64200;BME280;50516;52.272;5.136;2024-02-21T05:28:51;101773.22;;;9.84;100.00
64200;BME280;50516;52.272;5.136;2024-02-21T05:31:20;101772.53;;;9.77;100.00
64200;BME280;50516;52.272;5.136;2024-02-21T05:33:46;101762.75;;;9.81;100.00
64200;BME280;50516;52.272;5.136;2024-02-21T05:36:13;101759.03;;;9.87;100.00
64200;BME280;50516;52.272;5.136;2024-02-21T05:38:38;101759.59;;;9.89;100.00
64200;BME280;50516;52.272;5.136;2024-02-21T05:41:04;101748.72;;;9.94;100.00
64200;BME280;50516;52.272;5.136;2024-02-21T05:43:30;101744.44;;;9.98;100.00
64200;BME280;50516;52.272;5.136;2024-02-21T05:45:55;101729.84;;;9.81;100.00
64200;BME280;50516;52.272;5.136;2024-02-21T05:48:22;101736.75;;;9.83;100.00
64200;BME280;50516;52.272;5.136;2024-02-21T05:50:47;101726.94;;;9.87;100.00
64200;BME280;50516;52.272;5.136;2024-02-21T05:53:13;101717.97;;;9.92;100.00
64200;BME280;50516;52.272;5.136;2024-02-21T05:55:39;101716.13;;;9.81;100.00
64200;BME280;50516;52.272;5.136;2024-02-21T05:58:05;101714.59;;;9.73;100.00
64200;BME280;50516;52.272;5.136;2024-02-21T06:00:31;101720.91;;;9.74;100.00
64200;BME280;50516;52.272;5.136;2024-02-21T06:02:56;101712.78;;;9.79;100.00
64200;BME280;50516;52.272;5.136;2024-02-21T06:05:22;101722.72;;;9.68;100.00
64200;BME280;50516;52.272;5.136;2024-02-21T06:07:47;101719.84;;;9.75;100.00
64200;BME280;50516;52.272;5.136;2024-02-21T06:10:12;101710.69;;;9.69;100.00
64200;BME280;50516;52.272;5.136;2024-02-21T06:12:38;101702.09;;;9.65;100.00
64200;BME280;50516;52.272;5.136;2024-02-21T06:15:03;101710.47;;;9.59;100.00
64200;BME280;50516;52.272;5.136;2024-02-21T06:17:29;101711.56;;;9.58;100.00
64200;BME280;50516;52.272;5.136;2024-02-21T06:19:54;101713.38;;;9.52;100.00
64200;BME280;50516;52.272;5.136;2024-02-21T06:22:19;101717.06;;;9.58;100.00
64200;BME280;50516;52.272;5.136;2024-02-21T06:24:44;101714.75;;;9.66;100.00
64200;BME280;50516;52.272;5.136;2024-02-21T06:27:11;101720.53;;;9.53;100.00
64200;BME280;50516;52.272;5.136;2024-02-21T06:29:36;101719.34;;;9.49;100.00
64200;BME280;50516;52.272;5.136;2024-02-21T06:32:02;101726.63;;;9.43;100.00
64200;BME280;50516;52.272;5.136;2024-02-21T06:34:27;101730.53;;;9.47;100.00
64200;BME280;50516;52.272;5.136;2024-02-21T06:36:52;101731.00;;;9.56;100.00
64200;BME280;50516;52.272;5.136;2024-02-21T06:39:18;101724.03;;;9.65;100.00
64200;BME280;50516;52.272;5.136;2024-02-21T06:41:43;101723.03;;;9.55;100.00
64200;BME280;50516;52.272;5.136;2024-02-21T06:44:09;101721.69;;;9.57;100.00
64200;BME280;50516;52.272;5.136;2024-02-21T06:46:35;101723.50;;;9.52;100.00
64200;BME280;50516;52.272;5.136;2024-02-21T06:49:01;101715.53;;;9.50;100.00
64200;BME280;50516;52.272;5.136;2024-02-21T06:51:27;101718.19;;;9.45;100.00
64200;BME280;50516;52.272;5.136;2024-02-21T06:53:53;101703.94;;;9.60;100.00
64200;BME280;50516;52.272;5.136;2024-02-21T06:56:19;101707.84;;;9.64;100.00
64200;BME280;50516;52.272;5.136;2024-02-21T06:58:44;101702.00;;;9.60;100.00
64200;BME280;50516;52.272;5.136;2024-02-21T07:01:10;101702.75;;;9.56;100.00
64200;BME280;50516;52.272;5.136;2024-02-21T07:03:36;101698.78;;;9.63;100.00
64200;BME280;50516;52.272;5.136;2024-02-21T07:06:01;101697.63;;;9.59;100.00
64200;BME280;50516;52.272;5.136;2024-02-21T07:08:26;101695.06;;;9.41;100.00
64200;BME280;50516;52.272;5.136;2024-02-21T07:10:52;101691.25;;;9.42;100.00
64200;BME280;50516;52.272;5.136;2024-02-21T07:13:17;101689.09;;;9.44;100.00
64200;BME280;50516;52.272;5.136;2024-02-21T07:15:43;101690.94;;;9.55;100.00
64200;BME280;50516;52.272;5.136;2024-02-21T07:18:08;101686.03;;;9.57;100.00
64200;BME280;50516;52.272;5.136;2024-02-21T07:20:33;101685.72;;;9.54;100.00
64200;BME280;50516;52.272;5.136;2024-02-21T07:22:59;101674.84;;;9.59;100.00
64200;BME280;50516;52.272;5.136;2024-02-21T07:25:24;101675.69;;;9.59;100.00
64200;BME280;50516;52.272;5.136;2024-02-21T07:27:50;101682.47;;;9.57;100.00
64200;BME280;50516;52.272;5.136;2024-02-21T07:30:15;101673.63;;;9.66;100.00
64200;BME280;50516;52.272;5.136;2024-02-21T07:32:41;101668.47;;;9.70;100.00
64200;BME280;50516;52.272;5.136;2024-02-21T07:35:06;101668.66;;;9.80;100.00
64200;BME280;50516;52.272;5.136;2024-02-21T07:37:36;101651.59;;;9.78;100.00
64200;BME280;50516;52.272;5.136;2024-02-21T07:40:01;101643.56;;;9.89;100.00
64200;BME280;50516;52.272;5.136;2024-02-21T07:42:27;101642.84;;;9.93;100.00
64200;BME280;50516;52.272;5.136;2024-02-21T07:44:52;101628.50;;;9.91;100.00
64200;BME280;50516;52.272;5.136;2024-02-21T07:47:17;101625.19;;;9.89;100.00
64200;BME280;50516;52.272;5.136;2024-02-21T07:49:44;101627.19;;;9.94;100.00
64200;BME280;50516;52.272;5.136;2024-02-21T07:52:10;101614.88;;;9.79;100.00
64200;BME280;50516;52.272;5.136;2024-02-21T07:54:36;101623.78;;;9.86;100.00
64200;BME280;50516;52.272;5.136;2024-02-21T07:57:01;101616.81;;;9.79;100.00
64200;BME280;50516;52.272;5.136;2024-02-21T07:59:28;101611.56;;;9.77;100.00
64200;BME280;50516;52.272;5.136;2024-02-21T08:01:56;101621.03;;;9.86;100.00
64200;BME280;50516;52.272;5.136;2024-02-21T08:04:22;101618.22;;;9.98;100.00
64200;BME280;50516;52.272;5.136;2024-02-21T08:06:52;101623.28;;;9.90;100.00
64200;BME280;50516;52.272;5.136;2024-02-21T08:09:18;101611.72;;;9.87;100.00
64200;BME280;50516;52.272;5.136;2024-02-21T08:11:43;101610.97;;;9.92;100.00
64200;BME280;50516;52.272;5.136;2024-02-21T08:14:09;101609.25;;;10.03;100.00
64200;BME280;50516;52.272;5.136;2024-02-21T08:16:34;101610.97;;;10.26;100.00
64200;BME280;50516;52.272;5.136;2024-02-21T08:18:59;101606.09;;;10.11;100.00
64200;BME280;50516;52.272;5.136;2024-02-21T08:21:27;101604.56;;;10.20;100.00
64200;BME280;50516;52.272;5.136;2024-02-21T08:23:52;101610.66;;;10.05;100.00
64200;BME280;50516;52.272;5.136;2024-02-21T08:26:19;101594.44;;;10.21;100.00
64200;BME280;50516;52.272;5.136;2024-02-21T08:28:44;101586.44;;;10.19;100.00
64200;BME280;50516;52.272;5.136;2024-02-21T08:31:09;101590.16;;;10.30;100.00
64200;BME280;50516;52.272;5.136;2024-02-21T08:33:35;101590.91;;;10.43;100.00
64200;BME280;50516;52.272;5.136;2024-02-21T08:36:00;101586.84;;;10.45;100.00
64200;BME280;50516;52.272;5.136;2024-02-21T08:38:25;101572.78;;;10.41;100.00
64200;BME280;50516;52.272;5.136;2024-02-21T08:40:51;101573.94;;;10.46;100.00
64200;BME280;50516;52.272;5.136;2024-02-21T08:43:16;101564.63;;;10.30;100.00
64200;BME280;50516;52.272;5.136;2024-02-21T08:45:41;101569.41;;;10.34;100.00
64200;BME280;50516;52.272;5.136;2024-02-21T08:48:07;101567.63;;;10.45;100.00
64200;BME280;50516;52.272;5.136;2024-02-21T08:50:33;101570.25;;;10.57;100.00
64200;BME280;50516;52.272;5.136;2024-02-21T08:52:58;101573.00;;;10.57;100.00
64200;BME280;50516;52.272;5.136;2024-02-21T08:55:23;101565.50;;;10.52;100.00
64200;BME280;50516;52.272;5.136;2024-02-21T08:57:49;101564.25;;;10.60;100.00
64200;BME280;50516;52.272;5.136;2024-02-21T09:00:15;101561.78;;;10.41;100.00
64200;BME280;50516;52.272;5.136;2024-02-21T09:02:41;101561.25;;;10.62;100.00
64200;BME280;50516;52.272;5.136;2024-02-21T09:05:09;101557.59;;;10.56;100.00
64200;BME280;50516;52.272;5.136;2024-02-21T09:07:35;101547.72;;;10.55;100.00
64200;BME280;50516;52.272;5.136;2024-02-21T09:10:00;101550.00;;;10.63;100.00
64200;BME280;50516;52.272;5.136;2024-02-21T09:12:26;101538.38;;;10.56;100.00
64200;BME280;50516;52.272;5.136;2024-02-21T09:14:51;101537.94;;;10.42;100.00
64200;BME280;50516;52.272;5.136;2024-02-21T09:17:16;101532.69;;;10.40;100.00
64200;BME280;50516;52.272;5.136;2024-02-21T09:19:49;101530.22;;;10.61;100.00
64200;BME280;50516;52.272;5.136;2024-02-21T09:22:14;101522.34;;;10.70;100.00
64200;BME280;50516;52.272;5.136;2024-02-21T09:24:40;101511.66;;;10.73;100.00
64200;BME280;50516;52.272;5.136;2024-02-21T09:27:05;101504.38;;;10.84;98.89
64200;BME280;50516;52.272;5.136;2024-02-21T09:29:31;101496.91;;;10.80;98.99
64200;BME280;50516;52.272;5.136;2024-02-21T09:31:59;101503.63;;;10.89;98.67
64200;BME280;50516;52.272;5.136;2024-02-21T09:34:24;101499.84;;;10.95;98.15
64200;BME280;50516;52.272;5.136;2024-02-21T09:36:50;101497.13;;;11.00;98.25
64200;BME280;50516;52.272;5.136;2024-02-21T09:39:15;101486.38;;;10.93;98.32
64200;BME280;50516;52.272;5.136;2024-02-21T09:41:50;101479.53;;;11.01;97.51
64200;BME280;50516;52.272;5.136;2024-02-21T09:44:19;101476.91;;;11.11;96.61
64200;BME280;50516;52.272;5.136;2024-02-21T09:47:03;101475.88;;;11.18;95.61
64200;BME280;50516;52.272;5.136;2024-02-21T09:49:32;101453.97;;;11.28;96.09
64200;BME280;50516;52.272;5.136;2024-02-21T09:52:05;101448.72;;;11.26;95.54
64200;BME280;50516;52.272;5.136;2024-02-21T09:54:32;101448.22;;;11.29;94.71
64200;BME280;50516;52.272;5.136;2024-02-21T09:56:59;101439.56;;;11.15;94.62
64200;BME280;50516;52.272;5.136;2024-02-21T09:59:27;101424.00;;;11.26;94.13
64200;BME280;50516;52.272;5.136;2024-02-21T10:01:52;101422.94;;;11.32;94.81
64200;BME280;50516;52.272;5.136;2024-02-21T10:04:19;101412.38;;;11.57;94.09
64200;BME280;50516;52.272;5.136;2024-02-21T10:06:45;101415.41;;;11.55;92.43
64200;BME280;50516;52.272;5.136;2024-02-21T10:09:26;101409.13;;;11.60;92.91
64200;BME280;50516;52.272;5.136;2024-02-21T10:11:55;101412.44;;;11.67;91.71
64200;BME280;50516;52.272;5.136;2024-02-21T10:14:21;101415.19;;;11.67;91.54
64200;BME280;50516;52.272;5.136;2024-02-21T10:16:57;101405.22;;;11.56;91.24
64200;BME280;50516;52.272;5.136;2024-02-21T10:19:24;101394.25;;;11.61;91.30
64200;BME280;50516;52.272;5.136;2024-02-21T10:22:06;101392.38;;;11.66;91.53
64200;BME280;50516;52.272;5.136;2024-02-21T10:24:33;101379.59;;;11.93;90.36
64200;BME280;50516;52.272;5.136;2024-02-21T10:27:03;101380.16;;;11.95;89.12
64200;BME280;50516;52.272;5.136;2024-02-21T10:29:30;101376.94;;;12.08;89.30
64200;BME280;50516;52.272;5.136;2024-02-21T10:32:09;101362.50;;;11.91;88.87
64200;BME280;50516;52.272;5.136;2024-02-21T10:34:36;101352.97;;;12.14;88.95
64200;BME280;50516;52.272;5.136;2024-02-21T10:37:06;101348.28;;;12.04;87.26
64200;BME280;50516;52.272;5.136;2024-02-21T10:39:33;101346.72;;;11.70;88.84
64200;BME280;50516;52.272;5.136;2024-02-21T10:42:01;101343.81;;;11.93;88.79
64200;BME280;50516;52.272;5.136;2024-02-21T10:44:30;101334.75;;;11.97;88.63
64200;BME280;50516;52.272;5.136;2024-02-21T10:46:57;101330.38;;;12.01;87.84
64200;BME280;50516;52.272;5.136;2024-02-21T10:49:23;101318.00;;;12.09;87.18
64200;BME280;50516;52.272;5.136;2024-02-21T10:54:39;101299.81;;;12.03;86.36
64200;BME280;50516;52.272;5.136;2024-02-21T10:57:06;101273.41;;;12.07;87.24
64200;BME280;50516;52.272;5.136;2024-02-21T10:59:34;101265.16;;;12.02;86.32
64200;BME280;50516;52.272;5.136;2024-02-21T11:02:00;101275.28;;;11.91;86.91
64200;BME280;50516;52.272;5.136;2024-02-21T11:04:26;101314.06;;;11.84;87.91
64200;BME280;50516;52.272;5.136;2024-02-21T11:06:52;101325.06;;;11.90;87.72
64200;BME280;50516;52.272;5.136;2024-02-21T11:09:17;101328.44;;;11.97;87.94
64200;BME280;50516;52.272;5.136;2024-02-21T11:11:44;101331.31;;;11.69;88.60
64200;BME280;50516;52.272;5.136;2024-02-21T11:14:20;101320.47;;;11.47;89.41
64200;BME280;50516;52.272;5.136;2024-02-21T11:16:46;101327.50;;;11.28;90.56
64200;BME280;50516;52.272;5.136;2024-02-21T11:19:22;101327.22;;;11.24;89.88
64200;BME280;50516;52.272;5.136;2024-02-21T11:21:50;101326.78;;;11.00;91.79
64200;BME280;50516;52.272;5.136;2024-02-21T11:24:34;101313.38;;;11.09;91.82
64200;BME280;50516;52.272;5.136;2024-02-21T11:29:40;101288.13;;;11.17;91.20
64200;BME280;50516;52.272;5.136;2024-02-21T11:32:09;101279.56;;;11.08;91.83
64200;BME280;50516;52.272;5.136;2024-02-21T11:34:36;101269.69;;;11.12;91.78
64200;BME280;50516;52.272;5.136;2024-02-21T11:37:02;101255.06;;;11.02;92.54
64200;BME280;50516;52.272;5.136;2024-02-21T11:39:27;101250.94;;;11.04;92.71
64200;BME280;50516;52.272;5.136;2024-02-21T11:42:19;101236.25;;;10.83;92.93
64200;BME280;50516;52.272;5.136;2024-02-21T11:44:45;101236.53;;;10.82;92.91
64200;BME280;50516;52.272;5.136;2024-02-21T11:47:10;101231.81;;;10.77;92.72
64200;BME280;50516;52.272;5.136;2024-02-21T11:49:37;101231.16;;;11.02;92.28
64200;BME280;50516;52.272;5.136;2024-02-21T11:52:06;101195.88;;;11.37;90.91
64200;BME280;50516;52.272;5.136;2024-02-21T11:54:32;101187.22;;;11.81;88.31
64200;BME280;50516;52.272;5.136;2024-02-21T11:56:58;101175.97;;;11.93;87.55
64200;BME280;50516;52.272;5.136;2024-02-21T11:59:23;101156.72;;;12.13;86.53
64200;BME280;50516;52.272;5.136;2024-02-21T12:01:49;101152.31;;;12.33;85.90
64200;BME280;50516;52.272;5.136;2024-02-21T12:04:15;101141.28;;;12.53;85.36
64200;BME280;50516;52.272;5.136;2024-02-21T12:06:43;101126.38;;;12.54;84.68
64200;BME280;50516;52.272;5.136;2024-02-21T12:09:09;101136.84;;;12.63;83.48
64200;BME280;50516;52.272;5.136;2024-02-21T12:11:34;101120.84;;;12.75;82.54
64200;BME280;50516;52.272;5.136;2024-02-21T12:16:33;101115.78;;;12.97;82.15
64200;BME280;50516;52.272;5.136;2024-02-21T12:18:59;101118.81;;;13.01;81.94
64200;BME280;50516;52.272;5.136;2024-02-21T12:21:34;101103.44;;;12.85;81.49
64200;BME280;50516;52.272;5.136;2024-02-21T12:24:17;101103.50;;;12.74;82.29
64200;BME280;50516;52.272;5.136;2024-02-21T12:26:45;101098.28;;;12.57;82.49
64200;BME280;50516;52.272;5.136;2024-02-21T12:29:11;101075.19;;;12.38;83.10
64200;BME280;50516;52.272;5.136;2024-02-21T12:31:37;101076.88;;;12.18;83.55
64200;BME280;50516;52.272;5.136;2024-02-21T12:34:03;101057.34;;;12.25;83.76
64200;BME280;50516;52.272;5.136;2024-02-21T12:36:29;101052.66;;;12.15;83.03
64200;BME280;50516;52.272;5.136;2024-02-21T12:38:55;101070.28;;;12.14;83.64
64200;BME280;50516;52.272;5.136;2024-02-21T12:41:20;101041.66;;;12.15;83.84
64200;BME280;50516;52.272;5.136;2024-02-21T12:43:46;101032.25;;;12.37;83.59
64200;BME280;50516;52.272;5.136;2024-02-21T12:46:12;101026.47;;;12.44;83.33
64200;BME280;50516;52.272;5.136;2024-02-21T12:48:37;101013.56;;;12.34;82.53
64200;BME280;50516;52.272;5.136;2024-02-21T12:51:03;101014.09;;;12.31;83.68